Trinidad, Cuba
Current Conditions -  °F | °C
As of 4:50 PM on Monday 22 Dec 2014 (Local Time) from MUSC Reporting Station
Scattered Clouds Scattered Clouds  
Wind Chill: 84°   Ceiling: Unl
Heat Index: 84°   Visibility: 6mi
Dew Point: 57°   Wind: 5mph
Humidity: 40%   Direction: 150°SSE
Pressure: 29.94"   Gusts: NA
Location:  21.8°N, 79.98°W
Report Text: MUSC 222050Z 15004KT 100V190 9000 FEW020 SCT240 29/14 Q1014
Loading
Personal Weather Stations






























Interactive Weather Map New forecast layout! Learn more

10-Day Weather Forecast

Advertisements
Track Severe Weather on mobile